createdAt,value
2017-04-21T00:00:09.096Z,34.60
2017-04-21T00:01:08.911Z,34.60
2017-04-21T00:02:09.468Z,34.60
2017-04-21T00:03:09.301Z,34.60
2017-04-21T00:04:10.498Z,34.60
2017-04-21T00:05:11.281Z,34.60
2017-04-21T00:06:11.890Z,34.50
2017-04-21T00:07:11.621Z,34.50
2017-04-21T00:08:12.333Z,34.50
2017-04-21T00:09:13.100Z,34.50
2017-04-21T00:10:13.056Z,34.50
2017-04-21T00:11:13.188Z,34.40
2017-04-21T00:12:13.381Z,34.70
2017-04-21T00:13:13.700Z,34.50
2017-04-21T00:14:14.553Z,34.40
2017-04-21T00:15:14.579Z,34.40
2017-04-21T00:16:14.689Z,34.40
2017-04-21T00:17:14.436Z,34.40
2017-04-21T00:18:14.148Z,34.40
2017-04-21T00:19:14.076Z,34.40
2017-04-21T00:20:13.834Z,34.30
2017-04-21T00:21:14.532Z,34.40
2017-04-21T00:22:14.321Z,34.40
2017-04-21T00:23:14.313Z,34.40
2017-04-21T00:24:14.186Z,34.40
2017-04-21T00:25:15.107Z,34.40
2017-04-21T00:26:15.064Z,34.40
2017-04-21T00:27:15.428Z,34.40
2017-04-21T00:28:15.313Z,34.40
2017-04-21T00:29:15.071Z,34.40
2017-04-21T00:30:14.894Z,34.40
2017-04-21T00:31:15.503Z,34.40
2017-04-21T00:32:15.316Z,34.40
2017-04-21T00:33:15.122Z,34.40
2017-04-21T00:34:14.928Z,34.40
2017-04-21T00:35:14.855Z,34.40
2017-04-21T00:36:15.620Z,34.50
2017-04-21T00:37:15.381Z,34.90
2017-04-21T00:38:15.493Z,34.20
2017-04-21T00:39:15.308Z,34.60
2017-04-21T00:40:15.825Z,34.10
2017-04-21T00:41:15.730Z,34.30
2017-04-21T00:42:15.787Z,34.20
2017-04-21T00:43:17.278Z,33.80
2017-04-21T00:44:17.800Z,33.60
2017-04-21T00:45:17.612Z,34.40
2017-04-21T00:46:17.368Z,33.80
2017-04-21T00:47:17.588Z,33.70
2017-04-21T00:48:17.520Z,33.60
2017-04-21T00:49:18.066Z,33.50
2017-04-21T00:50:18.047Z,33.80
2017-04-21T00:51:17.862Z,33.80
2017-04-21T00:52:18.453Z,33.70
2017-04-21T00:53:18.338Z,34.10
2017-04-21T00:54:18.052Z,33.70
2017-04-21T00:55:17.864Z,33.40
2017-04-21T00:56:17.733Z,33.70
2017-04-21T00:57:17.502Z,33.50
2017-04-21T00:58:17.353Z,33.90
2017-04-21T00:59:17.304Z,33.90
2017-04-21T01:00:17.979Z,34.90
2017-04-21T01:01:17.761Z,34.00
2017-04-21T01:02:17.541Z,34.20
2017-04-21T01:03:17.492Z,34.30
2017-04-21T01:04:17.383Z,34.20
2017-04-21T01:05:17.211Z,33.60
2017-04-21T01:06:17.066Z,33.90
2017-04-21T01:07:17.067Z,34.60
2017-04-21T01:08:16.856Z,34.40
2017-04-21T01:09:17.535Z,34.00
2017-04-21T01:10:17.750Z,34.60
2017-04-21T01:11:17.672Z,34.60
2017-04-21T01:12:17.923Z,34.60
2017-04-21T01:13:17.732Z,34.50
2017-04-21T01:14:17.671Z,34.60
2017-04-21T01:15:18.017Z,34.50
2017-04-21T01:16:17.746Z,34.50
2017-04-21T01:17:17.765Z,34.50
2017-04-21T01:18:17.542Z,34.50
2017-04-21T01:19:17.330Z,34.50
2017-04-21T01:20:17.896Z,34.50
2017-04-21T01:21:17.588Z,34.50
2017-04-21T01:22:18.299Z,34.50
2017-04-21T01:23:18.891Z,34.50
2017-04-21T01:24:18.584Z,34.40
2017-04-21T01:25:18.885Z,34.50
2017-04-21T01:26:18.626Z,34.40
2017-04-21T01:27:18.423Z,34.40
2017-04-21T01:28:19.005Z,34.40
2017-04-21T01:29:18.969Z,34.40
2017-04-21T01:30:18.785Z,34.50
2017-04-21T01:31:18.433Z,34.30
2017-04-21T01:32:18.210Z,34.30
2017-04-21T01:33:18.070Z,34.30
2017-04-21T01:34:17.868Z,34.30
2017-04-21T01:35:17.770Z,35.40
2017-04-21T01:36:16.775Z,35.00
2017-04-21T01:37:16.657Z,35.20
2017-04-21T01:38:16.868Z,35.00
2017-04-21T01:39:17.346Z,35.00
2017-04-21T01:40:18.028Z,34.90
2017-04-21T01:41:18.009Z,35.00
2017-04-21T01:42:17.764Z,35.10
2017-04-21T01:43:18.293Z,35.20
2017-04-21T01:44:18.389Z,35.20
2017-04-21T01:45:18.361Z,35.10
2017-04-21T01:46:18.937Z,35.10
2017-04-21T01:47:18.894Z,35.30
2017-04-21T01:48:18.727Z,35.60
2017-04-21T01:49:18.566Z,35.60
2017-04-21T01:50:19.225Z,35.70
2017-04-21T01:51:19.170Z,35.60
2017-04-21T01:52:18.946Z,36.00
2017-04-21T01:53:19.536Z,35.70
2017-04-21T01:54:19.357Z,36.00
2017-04-21T01:55:19.118Z,35.70
2017-04-21T01:56:20.149Z,35.70
2017-04-21T01:57:19.889Z,35.70
2017-04-21T01:58:19.697Z,35.40
2017-04-21T01:59:19.577Z,35.60
2017-04-21T02:00:19.458Z,36.20
2017-04-21T02:01:19.198Z,36.10
2017-04-21T02:02:19.220Z,35.50
2017-04-21T02:03:19.022Z,35.50
2017-04-21T02:04:18.960Z,35.40
2017-04-21T02:05:19.496Z,35.70
2017-04-21T02:06:19.319Z,35.50
2017-04-21T02:07:19.238Z,36.10
2017-04-21T02:08:19.079Z,35.60
2017-04-21T02:09:18.907Z,35.80
2017-04-21T02:10:18.757Z,35.70
2017-04-21T02:11:18.011Z,35.60
2017-04-21T02:12:17.166Z,35.10
2017-04-21T02:13:16.355Z,35.10
2017-04-21T02:14:15.579Z,35.50
2017-04-21T02:15:14.761Z,35.30
2017-04-21T02:16:13.903Z,35.40
2017-04-21T02:17:13.047Z,35.30
2017-04-21T02:18:12.272Z,35.10
2017-04-21T02:19:11.418Z,34.70
2017-04-21T02:20:10.620Z,34.60
2017-04-21T02:21:09.787Z,34.70
2017-04-21T02:22:08.927Z,34.70
2017-04-21T02:23:08.083Z,34.70
2017-04-21T02:24:07.973Z,34.90
2017-04-21T02:25:07.116Z,34.80
2017-04-21T02:26:06.340Z,34.80
2017-04-21T02:27:05.531Z,34.80
2017-04-21T02:28:04.659Z,34.90
2017-04-21T02:29:03.799Z,34.90
2017-04-21T02:30:03.189Z,34.90
2017-04-21T02:31:02.319Z,34.90
2017-04-21T02:32:01.464Z,35.70
2017-04-21T02:33:00.591Z,35.00
2017-04-21T02:33:59.799Z,35.00
2017-04-21T02:34:58.939Z,35.00
2017-04-21T02:35:58.124Z,35.00
2017-04-21T02:36:57.269Z,35.00
2017-04-21T02:37:56.395Z,35.00
2017-04-21T02:38:55.536Z,35.00
2017-04-21T02:39:54.691Z,35.00
2017-04-21T02:40:54.585Z,35.10
2017-04-21T02:41:53.759Z,35.00
2017-04-21T02:42:52.897Z,35.00
2017-04-21T02:43:52.028Z,35.00
2017-04-21T02:44:51.949Z,35.00
2017-04-21T02:45:51.092Z,35.00
2017-04-21T02:46:50.235Z,35.00
2017-04-21T02:47:49.685Z,35.10
2017-04-21T02:48:48.824Z,35.10
2017-04-21T02:49:47.987Z,35.20
2017-04-21T02:50:47.127Z,35.10
2017-04-21T02:51:46.279Z,35.10
2017-04-21T02:52:45.440Z,35.10
2017-04-21T02:53:44.611Z,35.10
2017-04-21T02:54:43.788Z,35.10
2017-04-21T02:55:42.936Z,35.10
2017-04-21T02:56:42.788Z,34.80
2017-04-21T02:57:41.929Z,35.10
2017-04-21T02:58:41.067Z,35.20
2017-04-21T02:59:40.987Z,35.20
2017-04-21T03:00:40.180Z,35.10
2017-04-21T03:01:39.335Z,35.10
2017-04-21T03:02:39.272Z,35.20
2017-04-21T03:03:38.411Z,35.40
2017-04-21T03:04:37.600Z,35.40
2017-04-21T03:05:36.727Z,36.60
2017-04-21T03:06:35.808Z,35.20
2017-04-21T03:07:34.940Z,35.10
2017-04-21T03:08:34.076Z,35.10
2017-04-21T03:09:33.168Z,35.10
2017-04-21T03:10:32.252Z,35.10
2017-04-21T03:11:31.339Z,35.10
2017-04-21T03:12:30.439Z,35.10
2017-04-21T03:13:29.527Z,35.10
2017-04-21T03:14:29.384Z,35.20
2017-04-21T03:15:28.475Z,35.20
2017-04-21T03:16:27.568Z,35.00
2017-04-21T03:17:26.679Z,34.80
2017-04-21T03:18:25.768Z,35.00
2017-04-21T03:19:24.848Z,35.20
2017-04-21T03:20:23.968Z,35.00
2017-04-21T03:21:23.067Z,34.70
2017-04-21T03:22:22.156Z,34.70
2017-04-21T03:23:21.255Z,35.10
2017-04-21T03:24:20.359Z,34.90
2017-04-21T03:25:19.727Z,34.60
2017-04-21T03:26:18.843Z,34.60
2017-04-21T03:27:17.950Z,34.50
2017-04-21T03:28:17.792Z,34.50
2017-04-21T03:29:16.885Z,34.40
2017-04-21T03:30:15.987Z,34.40
2017-04-21T03:31:15.131Z,34.70
2017-04-21T03:32:14.227Z,34.50
2017-04-21T03:33:13.330Z,35.00
2017-04-21T03:34:12.428Z,35.20
2017-04-21T03:35:11.528Z,34.50
2017-04-21T03:36:10.628Z,34.80
2017-04-21T03:37:09.761Z,34.70
2017-04-21T03:38:08.847Z,34.70
2017-04-21T03:39:07.929Z,34.50
2017-04-21T03:40:07.015Z,34.50
2017-04-21T03:41:06.101Z,34.40
2017-04-21T03:42:05.191Z,34.30
2017-04-21T03:43:04.325Z,34.20
2017-04-21T03:44:03.415Z,34.50
2017-04-21T03:45:02.500Z,34.50
2017-04-21T03:46:01.587Z,34.50
2017-04-21T03:47:00.676Z,34.70
2017-04-21T03:48:00.095Z,34.80
2017-04-21T03:48:59.334Z,34.20
2017-04-21T03:49:58.421Z,34.40
2017-04-21T03:50:57.511Z,34.50
2017-04-21T03:51:56.635Z,34.60
2017-04-21T03:52:55.724Z,34.50
2017-04-21T03:53:54.811Z,35.30
2017-04-21T03:54:53.936Z,34.40
2017-04-21T03:55:53.019Z,34.30
2017-04-21T03:56:52.132Z,34.30
2017-04-21T03:57:51.224Z,34.40
2017-04-21T03:58:50.309Z,34.30
2017-04-21T03:59:49.395Z,34.20
2017-04-21T04:00:48.560Z,34.30
2017-04-21T04:01:47.652Z,35.00
2017-04-21T04:02:46.753Z,34.30
2017-04-21T04:03:45.864Z,34.20
2017-04-21T04:04:44.951Z,34.30
2017-04-21T04:05:44.168Z,34.60
2017-04-21T04:06:43.336Z,34.70
2017-04-21T04:07:42.472Z,34.90
2017-04-21T04:08:41.608Z,34.80
2017-04-21T04:09:40.753Z,35.00
2017-04-21T04:10:39.915Z,34.50
2017-04-21T04:11:39.099Z,34.80
2017-04-21T04:12:38.244Z,34.80
2017-04-21T04:13:37.378Z,34.70
2017-04-21T04:14:36.519Z,34.80
2017-04-21T04:15:35.664Z,35.10
2017-04-21T04:16:34.839Z,34.90
2017-04-21T04:17:34.024Z,34.90
2017-04-21T04:18:33.202Z,34.90
2017-04-21T04:19:32.371Z,34.70
2017-04-21T04:20:31.755Z,34.80
2017-04-21T04:21:30.901Z,34.90
2017-04-21T04:22:30.043Z,34.90
2017-04-21T04:23:29.272Z,35.20
2017-04-21T04:24:28.412Z,34.90
2017-04-21T04:25:27.572Z,34.90
2017-04-21T04:26:27.461Z,35.00
2017-04-21T04:27:26.603Z,35.00
2017-04-21T04:28:25.748Z,34.80
2017-04-21T04:29:24.951Z,34.90
2017-04-21T04:30:24.109Z,35.40
2017-04-21T04:31:23.256Z,35.60
2017-04-21T04:32:22.394Z,35.60
2017-04-21T04:33:21.526Z,35.60
2017-04-21T04:34:20.664Z,35.60
2017-04-21T04:35:20.583Z,37.00
2017-04-21T04:36:20.468Z,36.40
2017-04-21T04:37:19.647Z,36.80
2017-04-21T04:38:18.791Z,35.90
2017-04-21T04:39:17.936Z,36.30
2017-04-21T04:40:17.076Z,36.20
2017-04-21T04:41:16.277Z,36.20
2017-04-21T04:42:15.455Z,36.30
2017-04-21T04:43:14.625Z,36.50
2017-04-21T04:44:13.768Z,36.70
2017-04-21T04:45:12.910Z,36.80
2017-04-21T04:46:12.108Z,36.60
2017-04-21T04:47:11.294Z,36.80
2017-04-21T04:48:10.436Z,37.00
2017-04-21T04:49:09.580Z,37.50
2017-04-21T04:50:08.743Z,37.50
2017-04-21T04:51:07.895Z,37.40
2017-04-21T04:52:07.781Z,37.30
2017-04-21T04:53:06.966Z,37.20
2017-04-21T04:54:06.103Z,37.20
2017-04-21T04:55:05.248Z,37.40
2017-04-21T04:56:04.400Z,37.20
2017-04-21T04:57:03.591Z,37.20
2017-04-21T04:58:02.729Z,37.40
2017-04-21T04:59:02.633Z,37.40
2017-04-21T05:00:02.521Z,37.50
2017-04-21T05:01:01.660Z,37.40
2017-04-21T05:02:00.809Z,37.40
2017-04-21T05:03:00.691Z,37.00
2017-04-21T05:04:59.452Z,36.70
2017-04-21T05:05:58.627Z,36.90
2017-04-21T05:06:57.987Z,36.80
2017-04-21T05:07:57.374Z,37.10
2017-04-21T05:08:56.524Z,37.20
2017-04-21T05:09:55.705Z,37.10
2017-04-21T05:10:54.991Z,37.40
2017-04-21T05:11:54.133Z,37.20
2017-04-21T05:12:53.271Z,37.20
2017-04-21T05:13:52.495Z,37.10
2017-04-21T05:14:51.591Z,38.00
2017-04-21T05:15:50.765Z,38.30
2017-04-21T05:16:50.632Z,37.20
2017-04-21T05:17:49.774Z,37.50
2017-04-21T05:18:48.872Z,37.30
2017-04-21T05:19:47.963Z,37.50
2017-04-21T05:20:47.047Z,37.40
2017-04-21T05:21:46.167Z,37.80
2017-04-21T05:22:45.295Z,37.90
2017-04-21T05:23:44.383Z,38.00
2017-04-21T05:24:43.500Z,38.60
2017-04-21T05:25:42.595Z,38.60
2017-04-21T05:26:41.691Z,39.00
2017-04-21T05:27:40.794Z,39.10
2017-04-21T05:28:39.932Z,39.20
2017-04-21T05:29:39.030Z,39.30
2017-04-21T05:30:39.720Z,39.50
2017-04-21T05:31:38.832Z,40.00
2017-04-21T05:32:37.980Z,40.20
2017-04-21T05:33:37.836Z,40.40
2017-04-21T05:34:36.960Z,40.80
2017-04-21T05:35:36.047Z,41.30
2017-04-21T05:36:35.875Z,41.10
2017-04-21T05:37:34.968Z,40.60
2017-04-21T05:38:34.052Z,40.70
2017-04-21T05:39:33.171Z,41.10
2017-04-21T05:40:32.301Z,41.20
2017-04-21T05:41:32.141Z,40.80
2017-04-21T05:42:31.257Z,41.40
2017-04-21T05:43:30.349Z,40.90
2017-04-21T05:44:29.471Z,40.80
2017-04-21T05:45:28.567Z,40.50
2017-04-21T05:46:27.704Z,41.60
2017-04-21T05:47:26.808Z,40.70
2017-04-21T05:48:26.644Z,41.20
2017-04-21T05:49:25.739Z,41.00
2017-04-21T05:50:24.831Z,40.80
2017-04-21T05:51:23.920Z,40.80
2017-04-21T05:52:23.043Z,40.90
2017-04-21T05:53:22.139Z,40.70
2017-04-21T05:54:22.008Z,40.60
2017-04-21T05:55:21.104Z,40.40
2017-04-21T05:56:20.195Z,40.70
2017-04-21T05:57:19.293Z,40.00
2017-04-21T05:58:19.120Z,40.40
2017-04-21T05:59:18.239Z,40.50
2017-04-21T06:00:17.343Z,40.70
2017-04-21T06:01:16.468Z,40.60
2017-04-21T06:02:15.566Z,40.00
2017-04-21T06:03:14.664Z,40.30
2017-04-21T06:04:13.788Z,40.00
2017-04-21T06:05:12.889Z,40.10
2017-04-21T06:06:12.751Z,40.00
2017-04-21T06:07:11.891Z,39.90
2017-04-21T06:08:12.252Z,39.70
2017-04-21T06:09:11.349Z,39.60
2017-04-21T06:10:10.436Z,39.40
2017-04-21T06:11:09.527Z,39.30
2017-04-21T06:12:08.619Z,39.70
2017-04-21T06:13:07.756Z,39.40
2017-04-21T06:14:06.933Z,39.40
2017-04-21T06:15:06.087Z,39.00
2017-04-21T06:16:05.220Z,38.70
2017-04-21T06:17:04.360Z,38.60
2017-04-21T06:18:03.539Z,39.00
2017-04-21T06:19:02.721Z,38.60
2017-04-21T06:20:01.868Z,38.70
2017-04-21T06:21:01.012Z,38.40
2017-04-21T06:22:00.152Z,37.90
2017-04-21T06:22:59.294Z,38.20
2017-04-21T06:23:58.432Z,38.40
2017-04-21T06:24:57.664Z,38.50
2017-04-21T06:25:56.796Z,37.50
2017-04-21T06:26:55.946Z,37.70
2017-04-21T06:27:55.836Z,37.50
2017-04-21T06:28:54.975Z,37.40
2017-04-21T06:29:54.112Z,37.50
2017-04-21T06:30:53.303Z,37.60
2017-04-21T06:31:53.187Z,37.90
2017-04-21T06:32:52.328Z,37.30
2017-04-21T06:33:51.503Z,37.40
2017-04-21T06:34:50.668Z,36.70
2017-04-21T06:35:49.835Z,37.00
2017-04-21T06:36:49.004Z,36.40
2017-04-21T06:37:48.143Z,36.50
2017-04-21T06:38:48.023Z,36.40
2017-04-21T06:39:47.168Z,36.30
2017-04-21T06:40:46.317Z,36.40
2017-04-21T06:41:45.451Z,36.40
2017-04-21T06:42:44.652Z,36.40
2017-04-21T06:43:43.790Z,36.60
2017-04-21T06:44:42.942Z,36.30
2017-04-21T06:45:42.080Z,36.30
2017-04-21T06:46:41.252Z,36.40
2017-04-21T06:47:40.444Z,36.40
2017-04-21T06:48:40.198Z,36.40
2017-04-21T06:49:39.747Z,36.40
2017-04-21T06:50:38.972Z,36.40
2017-04-21T06:51:38.140Z,36.40
2017-04-21T06:52:37.302Z,36.40
2017-04-21T06:53:37.469Z,36.70
2017-04-21T06:54:36.795Z,36.40
2017-04-21T06:55:36.459Z,36.40
2017-04-21T06:56:35.599Z,36.40
2017-04-21T06:57:34.735Z,36.50
2017-04-21T06:58:33.881Z,36.50
2017-04-21T06:59:33.027Z,36.60
2017-04-21T07:00:32.206Z,36.50
2017-04-21T07:01:31.339Z,36.50
2017-04-21T07:02:35.029Z,36.50
2017-04-21T07:03:34.179Z,36.60
2017-04-21T07:04:34.065Z,36.60
2017-04-21T07:05:33.224Z,36.70
2017-04-21T07:06:32.376Z,36.10
2017-04-21T07:07:31.545Z,36.70
2017-04-21T07:08:30.759Z,36.40
2017-04-21T07:09:29.898Z,35.60
2017-04-21T07:10:29.043Z,35.50
2017-04-21T07:11:28.183Z,35.60
2017-04-21T07:12:27.347Z,35.50
2017-04-21T07:13:26.484Z,36.40
2017-04-21T07:14:26.356Z,35.70
2017-04-21T07:15:25.444Z,35.60
2017-04-21T07:16:24.548Z,35.60
2017-04-21T07:17:23.680Z,35.00
2017-04-21T07:18:22.763Z,35.20
2017-04-21T07:19:21.851Z,35.20
2017-04-21T07:20:20.983Z,35.30
2017-04-21T07:21:20.488Z,35.00
2017-04-21T07:22:19.579Z,35.00
2017-04-21T07:23:19.653Z,34.40
2017-04-21T07:24:18.745Z,34.40
2017-04-21T07:25:17.855Z,34.60
2017-04-21T07:27:16.347Z,33.80
2017-04-21T07:28:15.459Z,33.90
2017-04-21T07:29:14.780Z,33.00
2017-04-21T07:30:13.869Z,33.10
2017-04-21T07:31:13.120Z,32.90
2017-04-21T07:32:12.208Z,32.80
2017-04-21T07:33:11.306Z,33.10
2017-04-21T07:34:10.403Z,33.10
2017-04-21T07:35:09.705Z,33.10
2017-04-21T07:36:08.808Z,33.10
2017-04-21T07:37:07.978Z,32.60
2017-04-21T07:38:07.096Z,33.10
2017-04-21T07:39:06.960Z,32.80
2017-04-21T07:40:06.068Z,32.80
2017-04-21T07:41:05.245Z,33.10
2017-04-21T07:42:04.333Z,32.90
2017-04-21T07:43:03.427Z,32.70
2017-04-21T07:44:02.851Z,32.60
2017-04-21T07:45:01.939Z,32.10
2017-04-21T07:46:01.088Z,32.50
2017-04-21T07:47:00.364Z,31.80
2017-04-21T07:47:59.539Z,31.60
2017-04-21T07:48:58.676Z,31.80
2017-04-21T07:49:58.596Z,32.30
2017-04-21T07:50:57.748Z,31.90
2017-04-21T07:51:56.892Z,32.20
2017-04-21T07:52:56.059Z,31.80
2017-04-21T07:53:55.200Z,32.40
2017-04-21T07:54:54.386Z,31.80
2017-04-21T07:55:53.536Z,31.70
2017-04-21T07:56:52.688Z,31.80
2017-04-21T07:57:51.840Z,32.00
2017-04-21T07:58:50.999Z,32.00
2017-04-21T07:59:54.583Z,32.30
2017-04-21T08:00:49.403Z,32.00
2017-04-21T08:01:48.568Z,31.80
2017-04-21T08:02:47.718Z,32.20
2017-04-21T08:03:46.885Z,32.30
2017-04-21T08:04:46.367Z,32.40
2017-04-21T08:05:45.524Z,32.50
2017-04-21T08:06:44.684Z,32.70
2017-04-21T08:07:43.876Z,32.90
2017-04-21T08:08:43.053Z,32.70
2017-04-21T08:09:42.408Z,32.80
2017-04-21T08:10:41.609Z,33.00
2017-04-21T08:11:40.756Z,33.40
2017-04-21T08:12:39.910Z,33.40
2017-04-21T08:13:39.817Z,33.50
2017-04-21T08:14:39.025Z,34.00
2017-04-21T08:15:38.192Z,34.20
2017-04-21T08:16:37.364Z,34.30
2017-04-21T08:17:37.304Z,34.80
2017-04-21T08:18:36.488Z,34.40
2017-04-21T08:19:35.716Z,34.70
2017-04-21T08:20:35.008Z,34.50
2017-04-21T08:21:34.164Z,34.80
2017-04-21T08:22:33.317Z,34.90
2017-04-21T08:23:32.473Z,34.70
2017-04-21T08:24:31.659Z,34.60
2017-04-21T08:25:30.843Z,35.20
2017-04-21T08:26:30.025Z,34.80
2017-04-21T08:27:29.175Z,35.00
2017-04-21T08:28:28.321Z,34.80
2017-04-21T08:29:27.471Z,34.80
2017-04-21T08:30:26.694Z,34.80
2017-04-21T08:31:25.835Z,34.80
2017-04-21T08:32:25.016Z,35.00
2017-04-21T08:33:24.427Z,35.40
2017-04-21T08:34:23.567Z,35.70
2017-04-21T08:35:23.451Z,35.60
2017-04-21T08:36:22.627Z,36.00
2017-04-21T08:37:22.019Z,35.80
2017-04-21T08:38:23.397Z,35.70
2017-04-21T08:39:23.288Z,35.00
2017-04-21T08:40:22.467Z,35.50
2017-04-21T08:41:21.623Z,35.30
2017-04-21T08:42:20.779Z,35.20
2017-04-21T08:43:19.944Z,35.30
2017-04-21T08:44:19.887Z,35.00
2017-04-21T08:45:19.040Z,35.00
2017-04-21T08:46:18.927Z,35.00
2017-04-21T08:47:18.075Z,34.00
2017-04-21T08:48:17.220Z,33.40
2017-04-21T08:49:16.376Z,33.50
2017-04-21T08:50:15.756Z,34.20
2017-04-21T08:51:14.931Z,33.30
2017-04-21T08:52:14.087Z,32.80
2017-04-21T08:53:13.243Z,33.10
2017-04-21T08:54:12.383Z,33.00
2017-04-21T08:55:11.562Z,32.90
2017-04-21T08:56:10.739Z,32.90
2017-04-21T08:57:09.888Z,32.80
2017-04-21T08:58:09.789Z,32.40
2017-04-21T08:59:08.935Z,32.50
2017-04-21T09:00:08.196Z,32.60
2017-04-21T09:01:07.356Z,32.50
2017-04-21T09:02:06.543Z,32.30
2017-04-21T09:03:05.712Z,32.00
2017-04-21T09:04:04.879Z,32.10
2017-04-21T09:05:04.052Z,32.10
2017-04-21T09:06:03.251Z,32.20
2017-04-21T09:07:02.419Z,32.10
2017-04-21T09:08:01.579Z,32.40
2017-04-21T09:09:01.476Z,32.20
2017-04-21T09:10:00.627Z,32.90
2017-04-21T09:11:00.521Z,32.20
2017-04-21T09:11:59.796Z,32.00
2017-04-21T09:12:58.943Z,32.40
2017-04-21T09:13:58.087Z,32.00
2017-04-21T09:14:57.244Z,32.00
2017-04-21T09:15:56.407Z,32.00
2017-04-21T09:16:55.547Z,32.00
2017-04-21T09:17:54.925Z,32.40
2017-04-21T09:18:54.118Z,31.60
2017-04-21T09:19:53.268Z,31.80
2017-04-21T09:20:53.165Z,31.60
2017-04-21T09:21:53.711Z,31.90
2017-04-21T09:22:52.860Z,32.00
2017-04-21T09:23:52.056Z,32.00
2017-04-21T09:24:51.203Z,32.00
2017-04-21T09:25:50.350Z,31.80
2017-04-21T09:26:50.275Z,32.00
2017-04-21T09:27:49.444Z,31.80
2017-04-21T09:28:49.409Z,32.20
2017-04-21T09:29:48.584Z,32.40
2017-04-21T09:31:00.667Z,32.50
2017-04-21T09:31:46.992Z,32.60
2017-04-21T09:32:46.138Z,33.00
2017-04-21T09:33:45.345Z,32.90
2017-04-21T09:34:44.496Z,33.10
2017-04-21T09:35:44.129Z,32.70
2017-04-21T09:36:44.055Z,32.50
2017-04-21T09:37:43.312Z,32.40
2017-04-21T09:38:43.235Z,32.80
2017-04-21T09:39:42.628Z,33.00
2017-04-21T09:40:41.768Z,33.40
2017-04-21T09:41:40.952Z,33.40
2017-04-21T09:42:40.347Z,34.20
2017-04-21T09:43:39.596Z,33.20
2017-04-21T09:44:38.747Z,33.50
2017-04-21T09:45:37.908Z,33.90
2017-04-21T09:46:37.065Z,33.40
2017-04-21T09:47:36.249Z,33.50
2017-04-21T09:48:35.414Z,33.30
2017-04-21T09:49:34.600Z,33.40
2017-04-21T09:50:33.792Z,33.50
2017-04-21T09:51:32.935Z,33.30
2017-04-21T09:52:32.073Z,33.60
2017-04-21T09:53:31.280Z,33.40
2017-04-21T09:56:05.054Z,33.30
2017-04-21T09:57:02.409Z,33.50
2017-04-21T09:57:23.110Z,33.80
2017-04-21T09:57:55.055Z,33.50
2017-04-21T09:59:53.505Z,33.70
2017-04-21T10:00:25.852Z,33.50
2017-04-21T10:04:21.654Z,33.70
2017-04-21T10:04:32.275Z,33.30
2017-04-21T10:04:42.203Z,33.40
2017-04-21T10:06:25.389Z,33.70
2017-04-21T10:07:56.538Z,34.10
2017-04-21T10:08:21.276Z,33.40
2017-04-21T10:08:21.618Z,33.70
2017-04-21T10:08:22.020Z,33.90
2017-04-21T10:08:22.162Z,33.80
2017-04-21T10:09:19.156Z,33.70
2017-04-21T10:10:18.256Z,33.80
2017-04-21T10:11:17.756Z,34.10
2017-04-21T10:12:16.857Z,34.10
2017-04-21T10:13:15.976Z,34.40
2017-04-21T10:14:15.821Z,34.70
2017-04-21T10:15:14.920Z,34.50
2017-04-21T10:16:14.051Z,34.10
2017-04-21T10:17:14.112Z,34.10
2017-04-21T10:18:13.248Z,34.00
2017-04-21T10:19:12.343Z,34.50
2017-04-21T10:20:11.444Z,34.80
2017-04-21T10:21:10.551Z,35.10
2017-04-21T10:22:09.644Z,35.10
2017-04-21T10:23:08.868Z,35.00
2017-04-21T10:24:07.972Z,35.50
2017-04-21T10:25:07.063Z,35.10
2017-04-21T10:26:06.152Z,35.70
2017-04-21T10:27:05.248Z,34.80
2017-04-21T10:28:04.348Z,34.40
2017-04-21T10:29:03.467Z,34.40
2017-04-21T10:30:02.570Z,34.40
2017-04-21T10:31:02.432Z,35.10
2017-04-21T10:32:01.539Z,35.00
2017-04-21T10:33:00.636Z,35.10
2017-04-21T10:33:59.736Z,35.30
2017-04-21T10:34:58.895Z,35.50
2017-04-21T10:35:57.987Z,35.10
2017-04-21T10:36:57.081Z,34.60
2017-04-21T10:37:56.195Z,34.30
2017-04-21T10:38:55.292Z,34.10
2017-04-21T10:39:54.403Z,33.70
2017-04-21T10:40:53.903Z,33.60
2017-04-21T10:41:53.001Z,33.30
2017-04-21T10:42:52.105Z,33.30
2017-04-21T10:55:09.703Z,33.90
2017-04-21T10:56:09.538Z,33.60
2017-04-21T10:57:08.664Z,33.10
2017-04-21T10:58:07.771Z,33.10
2017-04-21T10:59:06.899Z,32.50
2017-04-21T11:00:05.991Z,32.40
2017-04-21T11:01:05.095Z,32.50
2017-04-21T11:02:04.183Z,33.70
2017-04-21T11:03:03.352Z,33.00
2017-04-21T11:04:02.496Z,33.90
2017-04-21T11:05:02.396Z,33.60
2017-04-21T11:06:02.284Z,33.50
2017-04-21T11:07:01.434Z,33.00
2017-04-21T11:08:00.705Z,32.40
2017-04-21T11:08:59.917Z,33.40
2017-04-21T11:09:59.068Z,33.80
2017-04-21T11:10:58.955Z,33.60
2017-04-21T11:11:58.120Z,32.90
2017-04-21T11:12:57.265Z,33.40
2017-04-21T11:13:56.415Z,33.60
2017-04-21T11:14:56.304Z,33.20
2017-04-21T11:15:55.447Z,33.60
2017-04-21T11:16:54.631Z,33.60
2017-04-21T11:17:53.780Z,33.40
2017-04-21T11:18:52.964Z,33.50
2017-04-21T11:19:52.104Z,33.60
2017-04-21T11:20:51.271Z,33.70
2017-04-21T11:21:50.415Z,34.00
2017-04-21T11:22:49.596Z,33.60
2017-04-21T11:23:48.772Z,33.70
2017-04-21T11:24:48.887Z,33.20
2017-04-21T11:25:48.035Z,33.30
2017-04-21T11:26:47.187Z,33.60
2017-04-21T11:27:46.338Z,33.80
2017-04-21T11:28:45.507Z,33.70
2017-04-21T11:29:44.655Z,33.80
2017-04-21T11:30:44.559Z,34.30
2017-04-21T11:31:44.453Z,33.60
2017-04-21T11:32:43.636Z,33.30
2017-04-21T11:33:42.774Z,33.80
2017-04-21T11:34:41.923Z,33.50
2017-04-21T11:35:41.132Z,33.70
2017-04-21T11:36:40.291Z,33.90
2017-04-21T11:37:39.439Z,33.70
2017-04-21T11:38:38.626Z,33.80
2017-04-21T11:39:37.775Z,33.70
2017-04-21T11:40:37.671Z,33.70
2017-04-21T11:41:37.571Z,33.80
2017-04-21T11:42:36.711Z,34.10
2017-04-21T11:43:35.920Z,34.50
2017-04-21T11:45:34.522Z,34.50
2017-04-21T11:46:34.632Z,34.70
2017-04-21T11:47:34.523Z,35.50
2017-04-21T11:48:33.667Z,35.20
2017-04-21T11:49:32.819Z,35.00
2017-04-21T11:50:32.032Z,35.00
2017-04-21T11:51:31.207Z,35.30
2017-04-21T11:52:31.092Z,35.30
2017-04-21T11:53:30.977Z,35.10
2017-04-21T11:54:30.152Z,34.60
2017-04-21T11:55:29.320Z,34.40
2017-04-21T11:56:28.460Z,34.80
2017-04-21T11:57:28.357Z,34.90
2017-04-21T11:58:27.499Z,34.40
2017-04-21T11:59:26.646Z,34.30
2017-04-21T12:00:26.570Z,34.30
2017-04-21T12:01:25.758Z,34.60
2017-04-21T12:02:24.907Z,34.50
2017-04-21T12:03:24.756Z,34.50
2017-04-21T12:04:23.905Z,34.50
2017-04-21T12:05:23.815Z,35.00
2017-04-21T12:06:23.705Z,34.40
2017-04-21T12:07:22.871Z,34.40
2017-04-21T12:08:22.035Z,34.00
2017-04-21T12:09:21.195Z,34.40
2017-04-21T12:10:20.351Z,34.40
2017-04-21T12:11:20.102Z,34.80
2017-04-21T12:12:19.888Z,34.20
2017-04-21T12:13:19.580Z,34.10
2017-04-21T12:14:18.809Z,33.80
2017-04-21T12:15:17.984Z,33.40
2017-04-21T12:16:17.127Z,33.60
2017-04-21T12:17:16.272Z,33.70
2017-04-21T12:18:15.457Z,33.20
2017-04-21T12:19:14.615Z,33.20
2017-04-21T12:20:13.789Z,33.30
2017-04-21T12:21:13.812Z,33.30
2017-04-21T12:22:12.976Z,33.20
2017-04-21T12:23:13.526Z,32.90
2017-04-21T12:24:12.676Z,33.00
2017-04-21T12:25:12.591Z,33.40
2017-04-21T12:26:12.475Z,32.50
2017-04-21T12:27:11.635Z,32.50
2017-04-21T12:28:10.815Z,32.60
2017-04-21T12:29:09.960Z,32.50
2017-04-21T12:30:09.934Z,32.90
2017-04-21T12:31:09.113Z,32.60
2017-04-21T12:32:08.290Z,33.00
2017-04-21T12:33:07.465Z,33.60
2017-04-21T12:34:06.636Z,33.70
2017-04-21T12:35:05.817Z,33.80
2017-04-21T12:36:04.991Z,33.90
2017-04-21T12:37:04.921Z,34.10
2017-04-21T12:38:04.087Z,34.00
2017-04-21T12:39:04.336Z,33.90
2017-04-21T12:40:03.533Z,33.80
2017-04-21T12:41:02.825Z,33.80
2017-04-21T12:42:02.001Z,33.90
2017-04-21T12:43:01.169Z,33.30
2017-04-21T12:44:00.725Z,33.90
2017-04-21T12:44:59.928Z,33.30
2017-04-21T12:46:00.010Z,33.30
2017-04-21T12:46:59.188Z,33.40
2017-04-21T12:47:58.349Z,33.40
2017-04-21T12:48:57.512Z,33.20
2017-04-21T12:49:57.473Z,33.30
2017-04-21T12:50:56.692Z,33.30
2017-04-21T12:51:56.596Z,33.50
2017-04-21T12:52:56.520Z,33.50
2017-04-21T12:53:55.679Z,33.20
2017-04-21T12:54:54.849Z,33.40
2017-04-21T12:55:54.021Z,33.30
2017-04-21T12:56:53.188Z,33.10
2017-04-21T12:57:52.355Z,33.80
2017-04-21T12:58:51.533Z,33.70